sensor_id;sensor_type;location;lat;lon;timestamp;temperature;humidity
50758;DHT22;36732;47.980;11.652;2023-02-21T00:01:54;11.00;52.10
50758;DHT22;36732;47.980;11.652;2023-02-21T00:04:38;10.90;52.10
50758;DHT22;36732;47.980;11.652;2023-02-21T00:07:22;10.90;52.00
50758;DHT22;36732;47.980;11.652;2023-02-21T00:10:08;10.90;51.80
50758;DHT22;36732;47.980;11.652;2023-02-21T00:12:54;10.90;51.80
50758;DHT22;36732;47.980;11.652;2023-02-21T00:15:38;10.90;51.90
50758;DHT22;36732;47.980;11.652;2023-02-21T00:18:23;10.90;51.90
50758;DHT22;36732;47.980;11.652;2023-02-21T00:21:07;10.80;51.80
50758;DHT22;36732;47.980;11.652;2023-02-21T00:23:51;10.80;51.70
50758;DHT22;36732;47.980;11.652;2023-02-21T00:26:35;10.80;51.70
50758;DHT22;36732;47.980;11.652;2023-02-21T00:29:19;10.80;51.80
50758;DHT22;36732;47.980;11.652;2023-02-21T00:32:03;10.70;51.70
50758;DHT22;36732;47.980;11.652;2023-02-21T00:34:48;10.70;51.70
50758;DHT22;36732;47.980;11.652;2023-02-21T00:37:32;10.70;51.70
50758;DHT22;36732;47.980;11.652;2023-02-21T00:40:16;10.70;51.60
50758;DHT22;36732;47.980;11.652;2023-02-21T00:43:00;10.70;51.60
50758;DHT22;36732;47.980;11.652;2023-02-21T00:45:45;10.60;51.60
50758;DHT22;36732;47.980;11.652;2023-02-21T00:48:30;10.60;51.60
50758;DHT22;36732;47.980;11.652;2023-02-21T00:51:15;10.60;51.60
50758;DHT22;36732;47.980;11.652;2023-02-21T00:53:59;10.60;51.50
50758;DHT22;36732;47.980;11.652;2023-02-21T00:56:44;10.50;51.40
50758;DHT22;36732;47.980;11.652;2023-02-21T00:59:28;10.50;51.20
50758;DHT22;36732;47.980;11.652;2023-02-21T01:02:13;10.50;51.20
50758;DHT22;36732;47.980;11.652;2023-02-21T01:04:57;10.40;51.30
50758;DHT22;36732;47.980;11.652;2023-02-21T01:07:41;10.40;51.30
50758;DHT22;36732;47.980;11.652;2023-02-21T01:10:25;10.40;51.40
50758;DHT22;36732;47.980;11.652;2023-02-21T01:13:10;10.40;51.20
50758;DHT22;36732;47.980;11.652;2023-02-21T01:15:54;10.30;51.20
50758;DHT22;36732;47.980;11.652;2023-02-21T01:18:38;10.30;51.20
50758;DHT22;36732;47.980;11.652;2023-02-21T01:21:23;10.30;51.20
50758;DHT22;36732;47.980;11.652;2023-02-21T01:24:11;10.20;51.00
50758;DHT22;36732;47.980;11.652;2023-02-21T01:26:57;10.20;51.00
50758;DHT22;36732;47.980;11.652;2023-02-21T01:29:42;10.20;51.00
50758;DHT22;36732;47.980;11.652;2023-02-21T01:32:26;10.20;51.00
50758;DHT22;36732;47.980;11.652;2023-02-21T01:35:10;10.10;51.10
50758;DHT22;36732;47.980;11.652;2023-02-21T01:37:55;10.10;51.00
50758;DHT22;36732;47.980;11.652;2023-02-21T01:40:39;10.10;51.00
50758;DHT22;36732;47.980;11.652;2023-02-21T01:43:25;10.00;51.00
50758;DHT22;36732;47.980;11.652;2023-02-21T01:46:18;10.00;51.00
50758;DHT22;36732;47.980;11.652;2023-02-21T01:49:07;10.00;50.80
50758;DHT22;36732;47.980;11.652;2023-02-21T01:51:53;9.90;50.80
50758;DHT22;36732;47.980;11.652;2023-02-21T01:54:41;9.90;50.90
50758;DHT22;36732;47.980;11.652;2023-02-21T01:57:27;9.90;50.80
50758;DHT22;36732;47.980;11.652;2023-02-21T02:00:13;9.80;50.90
50758;DHT22;36732;47.980;11.652;2023-02-21T02:03:03;9.80;50.90
50758;DHT22;36732;47.980;11.652;2023-02-21T02:06:04;9.80;51.00
50758;DHT22;36732;47.980;11.652;2023-02-21T02:08:51;9.80;50.90
50758;DHT22;36732;47.980;11.652;2023-02-21T02:30:11;9.60;51.00
50758;DHT22;36732;47.980;11.652;2023-02-21T02:33:20;9.50;51.00
50758;DHT22;36732;47.980;11.652;2023-02-21T02:38:45;9.50;51.30
50758;DHT22;36732;47.980;11.652;2023-02-21T02:41:54;9.50;51.30
50758;DHT22;36732;47.980;11.652;2023-02-21T02:44:30;9.50;51.30
50758;DHT22;36732;47.980;11.652;2023-02-21T02:47:03;9.50;51.40
50758;DHT22;36732;47.980;11.652;2023-02-21T02:49:32;9.50;51.50
50758;DHT22;36732;47.980;11.652;2023-02-21T02:52:06;9.40;51.40
50758;DHT22;36732;47.980;11.652;2023-02-21T02:54:33;9.40;51.50
50758;DHT22;36732;47.980;11.652;2023-02-21T02:57:01;9.40;51.60
50758;DHT22;36732;47.980;11.652;2023-02-21T02:59:29;9.40;51.70
50758;DHT22;36732;47.980;11.652;2023-02-21T03:02:11;9.40;51.80
50758;DHT22;36732;47.980;11.652;2023-02-21T03:11:01;9.40;52.00
50758;DHT22;36732;47.980;11.652;2023-02-21T03:14:17;9.40;51.70
50758;DHT22;36732;47.980;11.652;2023-02-21T03:16:52;9.30;51.70
50758;DHT22;36732;47.980;11.652;2023-02-21T03:19:24;9.40;51.70
50758;DHT22;36732;47.980;11.652;2023-02-21T03:21:57;9.30;51.60
50758;DHT22;36732;47.980;11.652;2023-02-21T03:24:26;9.30;51.70
50758;DHT22;36732;47.980;11.652;2023-02-21T03:26:56;9.30;51.70
50758;DHT22;36732;47.980;11.652;2023-02-21T03:29:29;9.30;51.70
50758;DHT22;36732;47.980;11.652;2023-02-21T03:32:00;9.30;51.70
50758;DHT22;36732;47.980;11.652;2023-02-21T03:34:35;9.30;51.60
50758;DHT22;36732;47.980;11.652;2023-02-21T03:37:06;9.30;51.60
50758;DHT22;36732;47.980;11.652;2023-02-21T03:39:32;9.30;51.50
50758;DHT22;36732;47.980;11.652;2023-02-21T03:41:58;9.20;52.10
50758;DHT22;36732;47.980;11.652;2023-02-21T03:44:24;9.20;51.50
50758;DHT22;36732;47.980;11.652;2023-02-21T03:46:49;9.20;51.60
50758;DHT22;36732;47.980;11.652;2023-02-21T03:49:15;9.20;51.50
50758;DHT22;36732;47.980;11.652;2023-02-21T03:51:41;9.20;51.50
50758;DHT22;36732;47.980;11.652;2023-02-21T03:54:06;9.20;51.40
50758;DHT22;36732;47.980;11.652;2023-02-21T03:56:32;9.10;51.40
50758;DHT22;36732;47.980;11.652;2023-02-21T03:58:58;9.10;51.30
50758;DHT22;36732;47.980;11.652;2023-02-21T04:01:23;9.10;51.30
50758;DHT22;36732;47.980;11.652;2023-02-21T04:03:49;9.10;51.20
50758;DHT22;36732;47.980;11.652;2023-02-21T04:06:15;9.10;51.20
50758;DHT22;36732;47.980;11.652;2023-02-21T04:08:41;9.10;51.30
50758;DHT22;36732;47.980;11.652;2023-02-21T04:11:06;9.00;51.30
50758;DHT22;36732;47.980;11.652;2023-02-21T04:13:32;9.10;51.30
50758;DHT22;36732;47.980;11.652;2023-02-21T04:15:58;9.00;51.40
50758;DHT22;36732;47.980;11.652;2023-02-21T04:18:24;9.00;51.50
50758;DHT22;36732;47.980;11.652;2023-02-21T04:20:49;9.00;51.50
50758;DHT22;36732;47.980;11.652;2023-02-21T04:23:17;9.00;51.50
50758;DHT22;36732;47.980;11.652;2023-02-21T04:25:44;9.00;51.60
50758;DHT22;36732;47.980;11.652;2023-02-21T04:28:09;9.00;51.60
50758;DHT22;36732;47.980;11.652;2023-02-21T04:30:35;9.00;51.70
50758;DHT22;36732;47.980;11.652;2023-02-21T04:33:01;8.90;51.60
50758;DHT22;36732;47.980;11.652;2023-02-21T04:35:28;9.00;51.70
50758;DHT22;36732;47.980;11.652;2023-02-21T04:37:53;9.00;51.80
50758;DHT22;36732;47.980;11.652;2023-02-21T04:40:19;9.00;51.70
50758;DHT22;36732;47.980;11.652;2023-02-21T04:42:45;8.90;51.60
50758;DHT22;36732;47.980;11.652;2023-02-21T04:45:10;9.00;51.70
50758;DHT22;36732;47.980;11.652;2023-02-21T04:47:36;8.90;51.60
50758;DHT22;36732;47.980;11.652;2023-02-21T04:50:03;8.90;51.60
50758;DHT22;36732;47.980;11.652;2023-02-21T04:52:29;8.90;51.60
50758;DHT22;36732;47.980;11.652;2023-02-21T04:54:55;8.90;51.60
50758;DHT22;36732;47.980;11.652;2023-02-21T04:57:21;8.90;51.60
50758;DHT22;36732;47.980;11.652;2023-02-21T04:59:46;8.90;51.60
50758;DHT22;36732;47.980;11.652;2023-02-21T05:02:12;8.90;51.60
50758;DHT22;36732;47.980;11.652;2023-02-21T05:04:38;8.80;51.60
50758;DHT22;36732;47.980;11.652;2023-02-21T05:07:05;8.80;51.50
50758;DHT22;36732;47.980;11.652;2023-02-21T05:09:31;8.80;51.60
50758;DHT22;36732;47.980;11.652;2023-02-21T05:11:57;8.80;51.60
50758;DHT22;36732;47.980;11.652;2023-02-21T05:14:23;8.80;51.60
50758;DHT22;36732;47.980;11.652;2023-02-21T05:16:48;8.80;51.60
50758;DHT22;36732;47.980;11.652;2023-02-21T05:19:21;8.80;51.60
50758;DHT22;36732;47.980;11.652;2023-02-21T05:21:56;8.70;51.60
50758;DHT22;36732;47.980;11.652;2023-02-21T05:24:24;8.70;51.60
50758;DHT22;36732;47.980;11.652;2023-02-21T05:26:51;8.70;51.60
50758;DHT22;36732;47.980;11.652;2023-02-21T05:29:17;8.70;51.70
50758;DHT22;36732;47.980;11.652;2023-02-21T05:31:43;8.70;51.70
50758;DHT22;36732;47.980;11.652;2023-02-21T05:34:10;8.70;51.70
50758;DHT22;36732;47.980;11.652;2023-02-21T05:36:35;8.70;51.80
50758;DHT22;36732;47.980;11.652;2023-02-21T05:39:02;8.70;52.00
50758;DHT22;36732;47.980;11.652;2023-02-21T05:41:28;8.70;51.90
50758;DHT22;36732;47.980;11.652;2023-02-21T05:43:54;8.70;51.90
50758;DHT22;36732;47.980;11.652;2023-02-21T05:46:27;8.70;52.00
50758;DHT22;36732;47.980;11.652;2023-02-21T05:48:55;8.70;52.00
50758;DHT22;36732;47.980;11.652;2023-02-21T05:51:25;8.70;52.10
50758;DHT22;36732;47.980;11.652;2023-02-21T05:53:52;8.70;52.10
50758;DHT22;36732;47.980;11.652;2023-02-21T05:56:18;8.70;52.10
50758;DHT22;36732;47.980;11.652;2023-02-21T05:58:45;8.70;52.20
50758;DHT22;36732;47.980;11.652;2023-02-21T06:01:10;8.70;52.30
50758;DHT22;36732;47.980;11.652;2023-02-21T06:03:36;8.70;52.40
50758;DHT22;36732;47.980;11.652;2023-02-21T06:06:02;8.70;52.50
50758;DHT22;36732;47.980;11.652;2023-02-21T06:08:28;8.70;52.70
50758;DHT22;36732;47.980;11.652;2023-02-21T06:10:54;8.70;53.30
50758;DHT22;36732;47.980;11.652;2023-02-21T06:13:20;8.80;52.70
50758;DHT22;36732;47.980;11.652;2023-02-21T06:15:45;8.80;52.70
50758;DHT22;36732;47.980;11.652;2023-02-21T06:18:15;8.80;52.70
50758;DHT22;36732;47.980;11.652;2023-02-21T06:20:40;8.80;52.70
50758;DHT22;36732;47.980;11.652;2023-02-21T06:23:06;8.80;52.50
50758;DHT22;36732;47.980;11.652;2023-02-21T06:25:32;8.80;52.50
50758;DHT22;36732;47.980;11.652;2023-02-21T06:27:57;8.80;52.40
50758;DHT22;36732;47.980;11.652;2023-02-21T06:30:24;8.80;52.30
50758;DHT22;36732;47.980;11.652;2023-02-21T06:32:49;8.90;52.30
50758;DHT22;36732;47.980;11.652;2023-02-21T06:35:15;8.80;52.30
50758;DHT22;36732;47.980;11.652;2023-02-21T06:37:41;8.90;52.30
50758;DHT22;36732;47.980;11.652;2023-02-21T06:40:07;8.90;52.30
50758;DHT22;36732;47.980;11.652;2023-02-21T06:42:33;8.90;52.40
50758;DHT22;36732;47.980;11.652;2023-02-21T06:44:59;8.90;52.40
50758;DHT22;36732;47.980;11.652;2023-02-21T06:47:25;8.90;52.40
50758;DHT22;36732;47.980;11.652;2023-02-21T06:49:50;8.90;52.30
50758;DHT22;36732;47.980;11.652;2023-02-21T06:52:16;8.90;52.30
50758;DHT22;36732;47.980;11.652;2023-02-21T06:54:42;8.90;52.40
50758;DHT22;36732;47.980;11.652;2023-02-21T06:57:08;8.90;52.40
50758;DHT22;36732;47.980;11.652;2023-02-21T06:59:33;8.90;52.50
50758;DHT22;36732;47.980;11.652;2023-02-21T07:01:59;8.90;52.50
50758;DHT22;36732;47.980;11.652;2023-02-21T07:04:25;8.90;52.60
50758;DHT22;36732;47.980;11.652;2023-02-21T07:06:52;9.00;52.80
50758;DHT22;36732;47.980;11.652;2023-02-21T07:09:17;8.90;52.70
50758;DHT22;36732;47.980;11.652;2023-02-21T07:11:43;9.00;52.80
50758;DHT22;36732;47.980;11.652;2023-02-21T07:14:11;9.00;52.80
50758;DHT22;36732;47.980;11.652;2023-02-21T07:16:37;9.00;52.80
50758;DHT22;36732;47.980;11.652;2023-02-21T07:19:03;9.00;53.10
50758;DHT22;36732;47.980;11.652;2023-02-21T07:21:29;9.00;52.90
50758;DHT22;36732;47.980;11.652;2023-02-21T07:23:55;9.10;52.90
50758;DHT22;36732;47.980;11.652;2023-02-21T07:26:21;9.10;52.90
50758;DHT22;36732;47.980;11.652;2023-02-21T07:28:48;9.10;52.80
50758;DHT22;36732;47.980;11.652;2023-02-21T07:31:14;9.10;52.80
50758;DHT22;36732;47.980;11.652;2023-02-21T07:33:41;9.20;52.90
50758;DHT22;36732;47.980;11.652;2023-02-21T07:36:07;9.20;52.90
50758;DHT22;36732;47.980;11.652;2023-02-21T07:38:33;9.20;52.90
50758;DHT22;36732;47.980;11.652;2023-02-21T07:41:01;9.20;53.00
50758;DHT22;36732;47.980;11.652;2023-02-21T07:43:29;9.20;52.90
50758;DHT22;36732;47.980;11.652;2023-02-21T07:45:55;9.30;53.00
50758;DHT22;36732;47.980;11.652;2023-02-21T07:48:21;9.30;53.00
50758;DHT22;36732;47.980;11.652;2023-02-21T07:50:47;9.30;53.00
50758;DHT22;36732;47.980;11.652;2023-02-21T07:53:14;9.30;53.00
50758;DHT22;36732;47.980;11.652;2023-02-21T07:55:42;9.30;53.00
50758;DHT22;36732;47.980;11.652;2023-02-21T07:58:08;9.30;53.00
50758;DHT22;36732;47.980;11.652;2023-02-21T08:00:34;9.40;53.00
50758;DHT22;36732;47.980;11.652;2023-02-21T08:03:00;9.40;53.00
50758;DHT22;36732;47.980;11.652;2023-02-21T08:05:26;9.40;52.90
50758;DHT22;36732;47.980;11.652;2023-02-21T08:07:52;9.40;52.80
50758;DHT22;36732;47.980;11.652;2023-02-21T08:10:23;9.50;52.70
50758;DHT22;36732;47.980;11.652;2023-02-21T08:12:50;9.50;52.70
50758;DHT22;36732;47.980;11.652;2023-02-21T08:15:16;9.50;52.70
50758;DHT22;36732;47.980;11.652;2023-02-21T08:17:42;9.50;52.60
50758;DHT22;36732;47.980;11.652;2023-02-21T08:20:08;9.50;52.60
50758;DHT22;36732;47.980;11.652;2023-02-21T08:22:36;9.50;52.60
50758;DHT22;36732;47.980;11.652;2023-02-21T08:25:02;9.60;52.60
50758;DHT22;36732;47.980;11.652;2023-02-21T08:27:28;9.60;52.60
50758;DHT22;36732;47.980;11.652;2023-02-21T08:29:53;9.60;52.50
50758;DHT22;36732;47.980;11.652;2023-02-21T08:32:19;9.60;52.90
50758;DHT22;36732;47.980;11.652;2023-02-21T08:34:46;9.70;52.40
50758;DHT22;36732;47.980;11.652;2023-02-21T08:37:12;9.70;52.50
50758;DHT22;36732;47.980;11.652;2023-02-21T08:39:49;9.70;52.50
50758;DHT22;36732;47.980;11.652;2023-02-21T08:42:17;9.70;52.20
50758;DHT22;36732;47.980;11.652;2023-02-21T08:44:44;9.70;52.30
50758;DHT22;36732;47.980;11.652;2023-02-21T08:47:11;9.80;52.20
50758;DHT22;36732;47.980;11.652;2023-02-21T08:49:37;9.80;52.10
50758;DHT22;36732;47.980;11.652;2023-02-21T08:52:06;9.80;52.10
50758;DHT22;36732;47.980;11.652;2023-02-21T08:54:32;9.80;52.00
50758;DHT22;36732;47.980;11.652;2023-02-21T08:56:58;9.90;52.10
50758;DHT22;36732;47.980;11.652;2023-02-21T08:59:24;9.90;52.10
50758;DHT22;36732;47.980;11.652;2023-02-21T09:01:50;9.90;52.10
50758;DHT22;36732;47.980;11.652;2023-02-21T09:04:16;9.90;52.00
50758;DHT22;36732;47.980;11.652;2023-02-21T09:06:41;9.90;52.00
50758;DHT22;36732;47.980;11.652;2023-02-21T09:09:07;10.00;52.10
50758;DHT22;36732;47.980;11.652;2023-02-21T09:11:33;10.00;52.10
50758;DHT22;36732;47.980;11.652;2023-02-21T09:13:58;10.00;52.20
50758;DHT22;36732;47.980;11.652;2023-02-21T09:16:24;10.00;52.10
50758;DHT22;36732;47.980;11.652;2023-02-21T09:18:57;10.00;52.10
50758;DHT22;36732;47.980;11.652;2023-02-21T09:21:25;10.10;51.90
50758;DHT22;36732;47.980;11.652;2023-02-21T09:23:55;10.10;52.00
50758;DHT22;36732;47.980;11.652;2023-02-21T09:26:23;10.10;51.90
50758;DHT22;36732;47.980;11.652;2023-02-21T09:28:53;10.10;51.90
50758;DHT22;36732;47.980;11.652;2023-02-21T09:31:19;10.20;51.80
50758;DHT22;36732;47.980;11.652;2023-02-21T09:33:45;10.20;51.80
50758;DHT22;36732;47.980;11.652;2023-02-21T09:36:11;10.20;51.70
50758;DHT22;36732;47.980;11.652;2023-02-21T09:38:37;10.20;51.70
50758;DHT22;36732;47.980;11.652;2023-02-21T09:41:08;10.30;51.70
50758;DHT22;36732;47.980;11.652;2023-02-21T09:43:39;10.30;52.50
50758;DHT22;36732;47.980;11.652;2023-02-21T09:49:22;10.30;51.50
50758;DHT22;36732;47.980;11.652;2023-02-21T09:51:50;10.30;51.60
50758;DHT22;36732;47.980;11.652;2023-02-21T09:54:27;10.40;51.80
50758;DHT22;36732;47.980;11.652;2023-02-21T09:56:58;10.30;51.60
50758;DHT22;36732;47.980;11.652;2023-02-21T09:59:25;10.40;51.80
50758;DHT22;36732;47.980;11.652;2023-02-21T10:05:17;10.40;51.90
50758;DHT22;36732;47.980;11.652;2023-02-21T10:08:08;10.40;51.60
50758;DHT22;36732;47.980;11.652;2023-02-21T10:10:55;10.40;51.60
50758;DHT22;36732;47.980;11.652;2023-02-21T10:16:11;10.50;51.40
50758;DHT22;36732;47.980;11.652;2023-02-21T10:21:37;10.50;51.20
50758;DHT22;36732;47.980;11.652;2023-02-21T10:24:32;10.50;51.50
50758;DHT22;36732;47.980;11.652;2023-02-21T10:27:03;10.50;51.40
50758;DHT22;36732;47.980;11.652;2023-02-21T10:29:42;10.60;51.60
50758;DHT22;36732;47.980;11.652;2023-02-21T10:32:35;10.60;51.60
50758;DHT22;36732;47.980;11.652;2023-02-21T10:35:02;10.60;51.60
50758;DHT22;36732;47.980;11.652;2023-02-21T10:40:04;10.70;51.20
50758;DHT22;36732;47.980;11.652;2023-02-21T10:42:44;10.70;51.30
50758;DHT22;36732;47.980;11.652;2023-02-21T10:45:19;10.70;51.40
50758;DHT22;36732;47.980;11.652;2023-02-21T10:48:05;10.70;51.60
50758;DHT22;36732;47.980;11.652;2023-02-21T10:53:33;10.80;51.20
50758;DHT22;36732;47.980;11.652;2023-02-21T11:01:22;10.80;51.20
50758;DHT22;36732;47.980;11.652;2023-02-21T11:03:58;10.80;51.20
50758;DHT22;36732;47.980;11.652;2023-02-21T11:08:55;10.90;51.30
50758;DHT22;36732;47.980;11.652;2023-02-21T11:11:58;10.90;50.90
50758;DHT22;36732;47.980;11.652;2023-02-21T11:14:30;10.90;50.60
50758;DHT22;36732;47.980;11.652;2023-02-21T11:17:14;11.00;51.10
50758;DHT22;36732;47.980;11.652;2023-02-21T11:27:34;11.00;51.10
50758;DHT22;36732;47.980;11.652;2023-02-21T11:30:23;11.00;50.80
50758;DHT22;36732;47.980;11.652;2023-02-21T11:32:51;11.10;50.90
50758;DHT22;36732;47.980;11.652;2023-02-21T11:35:30;11.10;50.80
50758;DHT22;36732;47.980;11.652;2023-02-21T11:38:04;11.10;50.60
50758;DHT22;36732;47.980;11.652;2023-02-21T11:40:50;11.10;50.50
50758;DHT22;36732;47.980;11.652;2023-02-21T11:43:25;11.10;50.60
50758;DHT22;36732;47.980;11.652;2023-02-21T11:48:58;11.20;50.50
50758;DHT22;36732;47.980;11.652;2023-02-21T11:51:46;11.20;50.70
50758;DHT22;36732;47.980;11.652;2023-02-21T11:54:14;11.20;50.80
50758;DHT22;36732;47.980;11.652;2023-02-21T12:02:53;11.30;50.80
50758;DHT22;36732;47.980;11.652;2023-02-21T12:08:50;11.40;51.00
50758;DHT22;36732;47.980;11.652;2023-02-21T12:23:43;11.50;50.40
50758;DHT22;36732;47.980;11.652;2023-02-21T12:26:27;11.50;50.50
50758;DHT22;36732;47.980;11.652;2023-02-21T12:35:27;11.60;50.80
50758;DHT22;36732;47.980;11.652;2023-02-21T12:47:51;11.70;50.90
50758;DHT22;36732;47.980;11.652;2023-02-21T12:50:21;11.70;51.00
50758;DHT22;36732;47.980;11.652;2023-02-21T12:53:01;11.70;51.20
50758;DHT22;36732;47.980;11.652;2023-02-21T12:55:38;11.70;51.10
50758;DHT22;36732;47.980;11.652;2023-02-21T13:01:17;11.70;51.00
50758;DHT22;36732;47.980;11.652;2023-02-21T13:07:12;11.80;51.20
50758;DHT22;36732;47.980;11.652;2023-02-21T13:09:49;11.80;51.20
50758;DHT22;36732;47.980;11.652;2023-02-21T13:12:24;11.80;51.20
50758;DHT22;36732;47.980;11.652;2023-02-21T13:14:56;11.80;51.20
50758;DHT22;36732;47.980;11.652;2023-02-21T13:17:25;11.90;51.20
50758;DHT22;36732;47.980;11.652;2023-02-21T13:19:54;11.90;51.10
50758;DHT22;36732;47.980;11.652;2023-02-21T13:25:48;11.90;51.00
50758;DHT22;36732;47.980;11.652;2023-02-21T13:28:23;11.90;50.90
50758;DHT22;36732;47.980;11.652;2023-02-21T13:30:51;12.00;50.70
50758;DHT22;36732;47.980;11.652;2023-02-21T13:33:25;12.00;50.90
50758;DHT22;36732;47.980;11.652;2023-02-21T13:39:01;12.00;50.50
50758;DHT22;36732;47.980;11.652;2023-02-21T13:41:40;12.00;50.70
50758;DHT22;36732;47.980;11.652;2023-02-21T13:44:14;12.10;51.00
50758;DHT22;36732;47.980;11.652;2023-02-21T13:55:39;12.10;50.70
50758;DHT22;36732;47.980;11.652;2023-02-21T14:08:48;12.20;50.40
50758;DHT22;36732;47.980;11.652;2023-02-21T14:11:27;12.20;50.50
50758;DHT22;36732;47.980;11.652;2023-02-21T14:14:03;12.20;50.60
50758;DHT22;36732;47.980;11.652;2023-02-21T14:16:45;12.30;50.50
50758;DHT22;36732;47.980;11.652;2023-02-21T14:19:23;12.30;50.70
50758;DHT22;36732;47.980;11.652;2023-02-21T14:22:16;12.30;50.30
50758;DHT22;36732;47.980;11.652;2023-02-21T14:24:49;12.30;50.10
50758;DHT22;36732;47.980;11.652;2023-02-21T14:32:49;12.30;50.30
50758;DHT22;36732;47.980;11.652;2023-02-21T14:37:55;12.40;50.30
50758;DHT22;36732;47.980;11.652;2023-02-21T14:49:18;12.40;50.60
50758;DHT22;36732;47.980;11.652;2023-02-21T14:52:20;12.40;50.50
50758;DHT22;36732;47.980;11.652;2023-02-21T14:58:35;12.50;50.50
50758;DHT22;36732;47.980;11.652;2023-02-21T15:01:37;12.50;50.40
50758;DHT22;36732;47.980;11.652;2023-02-21T15:09:44;12.50;50.40
50758;DHT22;36732;47.980;11.652;2023-02-21T15:12:31;12.50;50.60
50758;DHT22;36732;47.980;11.652;2023-02-21T15:15:00;12.50;50.60
50758;DHT22;36732;47.980;11.652;2023-02-21T15:17:26;12.60;50.70
50758;DHT22;36732;47.980;11.652;2023-02-21T15:20:14;12.60;50.60
50758;DHT22;36732;47.980;11.652;2023-02-21T15:22:40;12.60;50.30
50758;DHT22;36732;47.980;11.652;2023-02-21T15:27:33;12.60;50.60
50758;DHT22;36732;47.980;11.652;2023-02-21T15:32:37;12.60;50.40
50758;DHT22;36732;47.980;11.652;2023-02-21T15:35:05;12.70;50.70
50758;DHT22;36732;47.980;11.652;2023-02-21T15:37:38;12.70;50.50
50758;DHT22;36732;47.980;11.652;2023-02-21T15:40:16;12.70;50.40
50758;DHT22;36732;47.980;11.652;2023-02-21T15:42:45;12.70;50.30
50758;DHT22;36732;47.980;11.652;2023-02-21T15:45:21;12.70;50.50
50758;DHT22;36732;47.980;11.652;2023-02-21T15:47:51;12.70;50.60
50758;DHT22;36732;47.980;11.652;2023-02-21T15:50:33;12.70;50.30
50758;DHT22;36732;47.980;11.652;2023-02-21T15:53:22;12.80;50.20
50758;DHT22;36732;47.980;11.652;2023-02-21T15:55:49;12.80;50.20
50758;DHT22;36732;47.980;11.652;2023-02-21T15:58:26;12.80;50.50
50758;DHT22;36732;47.980;11.652;2023-02-21T16:01:09;12.80;50.80
50758;DHT22;36732;47.980;11.652;2023-02-21T16:03:43;12.80;50.90
50758;DHT22;36732;47.980;11.652;2023-02-21T16:06:15;12.80;50.70
50758;DHT22;36732;47.980;11.652;2023-02-21T16:09:05;12.80;50.70
50758;DHT22;36732;47.980;11.652;2023-02-21T16:14:40;12.80;51.10
50758;DHT22;36732;47.980;11.652;2023-02-21T16:19:43;12.80;51.20
50758;DHT22;36732;47.980;11.652;2023-02-21T16:22:34;12.80;51.40
50758;DHT22;36732;47.980;11.652;2023-02-21T16:25:14;12.70;51.70
50758;DHT22;36732;47.980;11.652;2023-02-21T16:27:49;12.70;51.90
50758;DHT22;36732;47.980;11.652;2023-02-21T16:30:21;12.70;51.90
50758;DHT22;36732;47.980;11.652;2023-02-21T16:32:50;12.70;51.90
50758;DHT22;36732;47.980;11.652;2023-02-21T16:35:21;12.60;52.00
50758;DHT22;36732;47.980;11.652;2023-02-21T16:37:50;12.60;52.20
50758;DHT22;36732;47.980;11.652;2023-02-21T16:40:29;12.50;52.30
50758;DHT22;36732;47.980;11.652;2023-02-21T16:42:58;12.50;52.40
50758;DHT22;36732;47.980;11.652;2023-02-21T16:45:26;12.50;52.40
50758;DHT22;36732;47.980;11.652;2023-02-21T16:47:57;12.50;52.60
50758;DHT22;36732;47.980;11.652;2023-02-21T16:50:32;12.40;52.80
50758;DHT22;36732;47.980;11.652;2023-02-21T16:53:00;12.40;52.80
50758;DHT22;36732;47.980;11.652;2023-02-21T16:55:27;12.40;52.80
50758;DHT22;36732;47.980;11.652;2023-02-21T16:57:57;12.40;53.00
50758;DHT22;36732;47.980;11.652;2023-02-21T17:00:24;12.30;53.00
50758;DHT22;36732;47.980;11.652;2023-02-21T17:02:51;12.30;53.00
50758;DHT22;36732;47.980;11.652;2023-02-21T17:05:18;12.30;53.00
50758;DHT22;36732;47.980;11.652;2023-02-21T17:07:50;12.30;53.10
50758;DHT22;36732;47.980;11.652;2023-02-21T17:10:18;12.30;53.20
50758;DHT22;36732;47.980;11.652;2023-02-21T17:12:44;12.20;53.10
50758;DHT22;36732;47.980;11.652;2023-02-21T17:15:10;12.20;53.10
50758;DHT22;36732;47.980;11.652;2023-02-21T17:17:38;12.10;53.20
50758;DHT22;36732;47.980;11.652;2023-02-21T17:20:13;12.10;53.30
50758;DHT22;36732;47.980;11.652;2023-02-21T17:22:40;12.10;53.40
50758;DHT22;36732;47.980;11.652;2023-02-21T17:25:06;12.10;53.50
50758;DHT22;36732;47.980;11.652;2023-02-21T17:27:32;12.00;53.50
50758;DHT22;36732;47.980;11.652;2023-02-21T17:29:58;12.10;53.60
50758;DHT22;36732;47.980;11.652;2023-02-21T17:32:23;12.00;53.70
50758;DHT22;36732;47.980;11.652;2023-02-21T17:34:51;12.00;53.60
50758;DHT22;36732;47.980;11.652;2023-02-21T17:37:16;12.00;53.60
50758;DHT22;36732;47.980;11.652;2023-02-21T17:39:42;12.00;53.70
50758;DHT22;36732;47.980;11.652;2023-02-21T17:42:08;11.90;53.50
50758;DHT22;36732;47.980;11.652;2023-02-21T17:44:33;11.90;53.60
50758;DHT22;36732;47.980;11.652;2023-02-21T17:47:02;11.90;53.60
50758;DHT22;36732;47.980;11.652;2023-02-21T17:49:31;11.90;53.70
50758;DHT22;36732;47.980;11.652;2023-02-21T17:51:57;11.80;53.50
50758;DHT22;36732;47.980;11.652;2023-02-21T17:54:23;11.80;53.60
50758;DHT22;36732;47.980;11.652;2023-02-21T17:56:50;11.80;53.50
50758;DHT22;36732;47.980;11.652;2023-02-21T17:59:16;11.80;53.50
50758;DHT22;36732;47.980;11.652;2023-02-21T18:01:43;11.80;53.50
50758;DHT22;36732;47.980;11.652;2023-02-21T18:04:09;11.80;54.10
50758;DHT22;36732;47.980;11.652;2023-02-21T18:06:36;11.70;53.60
50758;DHT22;36732;47.980;11.652;2023-02-21T18:09:02;11.70;53.50
50758;DHT22;36732;47.980;11.652;2023-02-21T18:11:30;11.60;53.60
50758;DHT22;36732;47.980;11.652;2023-02-21T18:13:56;11.60;53.70
50758;DHT22;36732;47.980;11.652;2023-02-21T18:16:22;11.60;53.70
50758;DHT22;36732;47.980;11.652;2023-02-21T18:18:48;11.60;53.70
50758;DHT22;36732;47.980;11.652;2023-02-21T18:21:15;11.60;53.80
50758;DHT22;36732;47.980;11.652;2023-02-21T18:23:43;11.60;53.70
50758;DHT22;36732;47.980;11.652;2023-02-21T18:26:09;11.50;53.60
50758;DHT22;36732;47.980;11.652;2023-02-21T18:28:35;11.50;53.50
50758;DHT22;36732;47.980;11.652;2023-02-21T18:31:01;11.50;53.50
50758;DHT22;36732;47.980;11.652;2023-02-21T18:33:27;11.50;53.50
50758;DHT22;36732;47.980;11.652;2023-02-21T18:35:54;11.40;53.50
50758;DHT22;36732;47.980;11.652;2023-02-21T18:38:21;11.40;53.40
50758;DHT22;36732;47.980;11.652;2023-02-21T18:40:47;11.40;53.50
50758;DHT22;36732;47.980;11.652;2023-02-21T18:45:46;11.40;53.50
50758;DHT22;36732;47.980;11.652;2023-02-21T18:48:13;11.40;53.50